sensor_id;sensor_type;location;lat;lon;timestamp;P1;durP1;ratioP1;P2;durP2;ratioP2
74650;SDS011;63169;46.042;14.592;2023-09-07T00:00:12;5.03;;;2.83;;
74650;SDS011;63169;46.042;14.592;2023-09-07T00:02:38;5.97;;;2.63;;
74650;SDS011;63169;46.042;14.592;2023-09-07T00:05:04;4.50;;;2.72;;
74650;SDS011;63169;46.042;14.592;2023-09-07T00:07:31;5.85;;;2.95;;
74650;SDS011;63169;46.042;14.592;2023-09-07T00:09:56;5.68;;;3.20;;
74650;SDS011;63169;46.042;14.592;2023-09-07T00:12:22;5.97;;;2.75;;
74650;SDS011;63169;46.042;14.592;2023-09-07T00:14:47;5.10;;;3.50;;
74650;SDS011;63169;46.042;14.592;2023-09-07T00:17:13;5.20;;;2.38;;
74650;SDS011;63169;46.042;14.592;2023-09-07T00:19:38;6.13;;;2.88;;
74650;SDS011;63169;46.042;14.592;2023-09-07T00:22:04;4.43;;;2.70;;
74650;SDS011;63169;46.042;14.592;2023-09-07T00:24:30;6.85;;;2.60;;
74650;SDS011;63169;46.042;14.592;2023-09-07T00:26:56;6.50;;;2.60;;
74650;SDS011;63169;46.042;14.592;2023-09-07T00:29:22;4.88;;;2.55;;
74650;SDS011;63169;46.042;14.592;2023-09-07T00:31:47;6.97;;;3.53;;
74650;SDS011;63169;46.042;14.592;2023-09-07T00:34:13;4.32;;;2.67;;
74650;SDS011;63169;46.042;14.592;2023-09-07T00:36:38;4.65;;;3.15;;
74650;SDS011;63169;46.042;14.592;2023-09-07T00:39:04;4.82;;;2.83;;
74650;SDS011;63169;46.042;14.592;2023-09-07T00:41:30;5.30;;;3.15;;
74650;SDS011;63169;46.042;14.592;2023-09-07T00:43:55;5.28;;;2.85;;
74650;SDS011;63169;46.042;14.592;2023-09-07T00:46:20;5.22;;;2.90;;
74650;SDS011;63169;46.042;14.592;2023-09-07T00:48:46;5.72;;;3.33;;
74650;SDS011;63169;46.042;14.592;2023-09-07T00:51:12;5.68;;;3.33;;
74650;SDS011;63169;46.042;14.592;2023-09-07T00:53:38;4.95;;;3.50;;
74650;SDS011;63169;46.042;14.592;2023-09-07T00:56:03;6.03;;;3.58;;
74650;SDS011;63169;46.042;14.592;2023-09-07T00:58:29;6.68;;;3.28;;
74650;SDS011;63169;46.042;14.592;2023-09-07T01:00:54;5.45;;;3.28;;
74650;SDS011;63169;46.042;14.592;2023-09-07T01:03:20;6.63;;;3.40;;
74650;SDS011;63169;46.042;14.592;2023-09-07T01:05:47;4.97;;;3.15;;
74650;SDS011;63169;46.042;14.592;2023-09-07T01:08:38;5.30;;;2.65;;
74650;SDS011;63169;46.042;14.592;2023-09-07T01:11:15;4.93;;;2.45;;
74650;SDS011;63169;46.042;14.592;2023-09-07T01:13:41;4.38;;;2.75;;
74650;SDS011;63169;46.042;14.592;2023-09-07T01:16:07;5.70;;;3.28;;
74650;SDS011;63169;46.042;14.592;2023-09-07T01:18:34;4.28;;;3.13;;
74650;SDS011;63169;46.042;14.592;2023-09-07T01:21:02;5.75;;;2.20;;
74650;SDS011;63169;46.042;14.592;2023-09-07T01:23:30;4.72;;;2.38;;
74650;SDS011;63169;46.042;14.592;2023-09-07T01:25:56;4.22;;;2.35;;
74650;SDS011;63169;46.042;14.592;2023-09-07T01:28:22;4.95;;;2.88;;
74650;SDS011;63169;46.042;14.592;2023-09-07T01:30:47;4.60;;;2.60;;
74650;SDS011;63169;46.042;14.592;2023-09-07T01:33:13;4.75;;;2.80;;
74650;SDS011;63169;46.042;14.592;2023-09-07T01:35:38;5.85;;;3.33;;
74650;SDS011;63169;46.042;14.592;2023-09-07T01:38:04;5.45;;;2.88;;
74650;SDS011;63169;46.042;14.592;2023-09-07T01:40:29;6.70;;;3.40;;
74650;SDS011;63169;46.042;14.592;2023-09-07T01:42:55;7.80;;;3.65;;
74650;SDS011;63169;46.042;14.592;2023-09-07T01:45:20;5.05;;;2.78;;
74650;SDS011;63169;46.042;14.592;2023-09-07T01:47:47;5.40;;;3.08;;
74650;SDS011;63169;46.042;14.592;2023-09-07T01:50:12;6.95;;;3.10;;
74650;SDS011;63169;46.042;14.592;2023-09-07T01:52:39;5.45;;;2.38;;
74650;SDS011;63169;46.042;14.592;2023-09-07T01:55:04;9.25;;;3.13;;
74650;SDS011;63169;46.042;14.592;2023-09-07T01:57:30;5.20;;;2.75;;
74650;SDS011;63169;46.042;14.592;2023-09-07T01:59:56;6.13;;;3.28;;
74650;SDS011;63169;46.042;14.592;2023-09-07T02:02:21;5.50;;;2.72;;
74650;SDS011;63169;46.042;14.592;2023-09-07T02:04:46;5.85;;;3.15;;
74650;SDS011;63169;46.042;14.592;2023-09-07T02:07:12;5.28;;;3.20;;
74650;SDS011;63169;46.042;14.592;2023-09-07T02:09:38;5.78;;;3.30;;
74650;SDS011;63169;46.042;14.592;2023-09-07T02:12:04;5.80;;;3.40;;
74650;SDS011;63169;46.042;14.592;2023-09-07T02:14:30;4.85;;;2.80;;
74650;SDS011;63169;46.042;14.592;2023-09-07T02:16:56;6.38;;;3.50;;
74650;SDS011;63169;46.042;14.592;2023-09-07T02:19:21;5.20;;;3.10;;
74650;SDS011;63169;46.042;14.592;2023-09-07T02:21:48;5.03;;;3.05;;
74650;SDS011;63169;46.042;14.592;2023-09-07T02:24:13;5.07;;;3.22;;
74650;SDS011;63169;46.042;14.592;2023-09-07T02:26:39;6.45;;;3.22;;
74650;SDS011;63169;46.042;14.592;2023-09-07T02:29:10;6.30;;;3.97;;
74650;SDS011;63169;46.042;14.592;2023-09-07T02:31:35;6.35;;;4.07;;
74650;SDS011;63169;46.042;14.592;2023-09-07T02:34:01;4.93;;;2.53;;
74650;SDS011;63169;46.042;14.592;2023-09-07T02:36:26;5.88;;;3.15;;
74650;SDS011;63169;46.042;14.592;2023-09-07T02:38:51;5.85;;;2.50;;
74650;SDS011;63169;46.042;14.592;2023-09-07T02:41:17;5.78;;;2.88;;
74650;SDS011;63169;46.042;14.592;2023-09-07T02:43:42;6.30;;;2.42;;
74650;SDS011;63169;46.042;14.592;2023-09-07T02:46:07;5.85;;;3.28;;
74650;SDS011;63169;46.042;14.592;2023-09-07T02:48:33;5.85;;;2.88;;
74650;SDS011;63169;46.042;14.592;2023-09-07T02:50:58;5.95;;;4.10;;
74650;SDS011;63169;46.042;14.592;2023-09-07T02:53:25;7.47;;;3.47;;
74650;SDS011;63169;46.042;14.592;2023-09-07T02:55:50;6.15;;;3.22;;
74650;SDS011;63169;46.042;14.592;2023-09-07T02:58:15;4.88;;;2.70;;
74650;SDS011;63169;46.042;14.592;2023-09-07T03:00:44;5.90;;;3.38;;
74650;SDS011;63169;46.042;14.592;2023-09-07T03:03:12;4.85;;;2.80;;
74650;SDS011;63169;46.042;14.592;2023-09-07T03:05:41;7.38;;;4.15;;
74650;SDS011;63169;46.042;14.592;2023-09-07T03:08:07;5.80;;;2.28;;
74650;SDS011;63169;46.042;14.592;2023-09-07T03:10:33;4.55;;;2.92;;
74650;SDS011;63169;46.042;14.592;2023-09-07T03:13:00;6.30;;;3.28;;
74650;SDS011;63169;46.042;14.592;2023-09-07T03:15:26;4.43;;;2.38;;
74650;SDS011;63169;46.042;14.592;2023-09-07T03:17:52;5.45;;;2.92;;
74650;SDS011;63169;46.042;14.592;2023-09-07T03:20:17;5.07;;;3.00;;
74650;SDS011;63169;46.042;14.592;2023-09-07T03:22:44;6.38;;;2.63;;
74650;SDS011;63169;46.042;14.592;2023-09-07T03:25:09;5.63;;;2.83;;
74650;SDS011;63169;46.042;14.592;2023-09-07T03:27:36;4.93;;;2.97;;
74650;SDS011;63169;46.042;14.592;2023-09-07T03:30:04;5.88;;;2.75;;
74650;SDS011;63169;46.042;14.592;2023-09-07T03:32:30;6.03;;;3.38;;
74650;SDS011;63169;46.042;14.592;2023-09-07T03:35:02;5.78;;;3.90;;
74650;SDS011;63169;46.042;14.592;2023-09-07T03:37:29;6.82;;;4.28;;
74650;SDS011;63169;46.042;14.592;2023-09-07T03:39:57;6.55;;;4.00;;
74650;SDS011;63169;46.042;14.592;2023-09-07T03:42:22;8.07;;;2.88;;
74650;SDS011;63169;46.042;14.592;2023-09-07T03:44:48;5.25;;;2.92;;
74650;SDS011;63169;46.042;14.592;2023-09-07T03:47:13;5.38;;;3.38;;
74650;SDS011;63169;46.042;14.592;2023-09-07T03:49:40;5.97;;;3.10;;
74650;SDS011;63169;46.042;14.592;2023-09-07T03:52:08;4.90;;;3.50;;
74650;SDS011;63169;46.042;14.592;2023-09-07T03:54:34;5.22;;;3.40;;
74650;SDS011;63169;46.042;14.592;2023-09-07T03:56:59;5.38;;;2.83;;
74650;SDS011;63169;46.042;14.592;2023-09-07T03:59:26;5.97;;;3.42;;
74650;SDS011;63169;46.042;14.592;2023-09-07T04:01:52;6.80;;;3.42;;
74650;SDS011;63169;46.042;14.592;2023-09-07T04:04:19;6.22;;;2.80;;
74650;SDS011;63169;46.042;14.592;2023-09-07T04:06:46;5.47;;;2.65;;
74650;SDS011;63169;46.042;14.592;2023-09-07T04:09:12;4.90;;;2.90;;
74650;SDS011;63169;46.042;14.592;2023-09-07T04:11:39;6.50;;;3.00;;
74650;SDS011;63169;46.042;14.592;2023-09-07T04:14:04;7.25;;;3.05;;
74650;SDS011;63169;46.042;14.592;2023-09-07T04:16:30;6.97;;;3.55;;
74650;SDS011;63169;46.042;14.592;2023-09-07T04:18:56;6.53;;;3.05;;
74650;SDS011;63169;46.042;14.592;2023-09-07T04:21:21;4.78;;;2.28;;
74650;SDS011;63169;46.042;14.592;2023-09-07T04:23:47;5.90;;;2.40;;
74650;SDS011;63169;46.042;14.592;2023-09-07T04:26:12;5.55;;;2.88;;
74650;SDS011;63169;46.042;14.592;2023-09-07T04:28:38;7.63;;;2.97;;
74650;SDS011;63169;46.042;14.592;2023-09-07T04:31:04;5.32;;;3.03;;
74650;SDS011;63169;46.042;14.592;2023-09-07T04:33:30;6.18;;;3.60;;
74650;SDS011;63169;46.042;14.592;2023-09-07T04:38:23;5.57;;;2.80;;
74650;SDS011;63169;46.042;14.592;2023-09-07T04:40:48;7.13;;;3.60;;
74650;SDS011;63169;46.042;14.592;2023-09-07T04:43:13;6.07;;;2.70;;
74650;SDS011;63169;46.042;14.592;2023-09-07T04:45:45;5.07;;;2.83;;
74650;SDS011;63169;46.042;14.592;2023-09-07T04:48:11;9.10;;;3.53;;
74650;SDS011;63169;46.042;14.592;2023-09-07T04:50:37;8.32;;;4.53;;
74650;SDS011;63169;46.042;14.592;2023-09-07T04:53:02;6.60;;;3.47;;
74650;SDS011;63169;46.042;14.592;2023-09-07T04:55:28;7.47;;;3.17;;
74650;SDS011;63169;46.042;14.592;2023-09-07T04:57:53;6.32;;;3.08;;
74650;SDS011;63169;46.042;14.592;2023-09-07T05:00:18;5.63;;;3.03;;
74650;SDS011;63169;46.042;14.592;2023-09-07T05:02:44;6.22;;;2.88;;
74650;SDS011;63169;46.042;14.592;2023-09-07T05:05:09;7.32;;;3.10;;
74650;SDS011;63169;46.042;14.592;2023-09-07T05:07:34;5.35;;;2.63;;
74650;SDS011;63169;46.042;14.592;2023-09-07T05:10:00;5.57;;;3.15;;
74650;SDS011;63169;46.042;14.592;2023-09-07T05:12:25;6.65;;;4.28;;
74650;SDS011;63169;46.042;14.592;2023-09-07T05:14:51;5.10;;;3.13;;
74650;SDS011;63169;46.042;14.592;2023-09-07T05:17:16;7.13;;;4.40;;
74650;SDS011;63169;46.042;14.592;2023-09-07T05:19:41;15.13;;;8.20;;
74650;SDS011;63169;46.042;14.592;2023-09-07T05:22:07;7.07;;;3.95;;
74650;SDS011;63169;46.042;14.592;2023-09-07T05:24:32;6.72;;;3.42;;
74650;SDS011;63169;46.042;14.592;2023-09-07T05:26:57;7.00;;;3.38;;
74650;SDS011;63169;46.042;14.592;2023-09-07T05:29:23;7.38;;;3.55;;
74650;SDS011;63169;46.042;14.592;2023-09-07T05:31:48;6.10;;;3.33;;
74650;SDS011;63169;46.042;14.592;2023-09-07T05:34:13;6.78;;;3.92;;
74650;SDS011;63169;46.042;14.592;2023-09-07T05:36:39;10.75;;;6.05;;
74650;SDS011;63169;46.042;14.592;2023-09-07T05:39:04;14.95;;;7.20;;
74650;SDS011;63169;46.042;14.592;2023-09-07T05:41:29;9.02;;;4.72;;
74650;SDS011;63169;46.042;14.592;2023-09-07T05:43:55;10.23;;;4.00;;
74650;SDS011;63169;46.042;14.592;2023-09-07T05:46:20;12.98;;;3.95;;
74650;SDS011;63169;46.042;14.592;2023-09-07T05:48:46;7.38;;;4.05;;
74650;SDS011;63169;46.042;14.592;2023-09-07T05:51:11;8.38;;;4.20;;
74650;SDS011;63169;46.042;14.592;2023-09-07T05:53:38;6.10;;;3.83;;
74650;SDS011;63169;46.042;14.592;2023-09-07T05:56:04;10.48;;;4.88;;
74650;SDS011;63169;46.042;14.592;2023-09-07T05:58:29;11.00;;;6.13;;
74650;SDS011;63169;46.042;14.592;2023-09-07T06:00:55;11.13;;;5.30;;
74650;SDS011;63169;46.042;14.592;2023-09-07T06:03:20;11.20;;;5.05;;
74650;SDS011;63169;46.042;14.592;2023-09-07T06:05:45;9.57;;;4.78;;
74650;SDS011;63169;46.042;14.592;2023-09-07T06:08:11;7.88;;;4.03;;
74650;SDS011;63169;46.042;14.592;2023-09-07T06:10:36;7.63;;;4.35;;
74650;SDS011;63169;46.042;14.592;2023-09-07T06:13:01;8.40;;;4.03;;
74650;SDS011;63169;46.042;14.592;2023-09-07T06:15:27;9.82;;;3.97;;
74650;SDS011;63169;46.042;14.592;2023-09-07T06:17:54;7.28;;;3.88;;
74650;SDS011;63169;46.042;14.592;2023-09-07T06:20:19;9.40;;;4.50;;
74650;SDS011;63169;46.042;14.592;2023-09-07T06:22:44;10.45;;;5.25;;
74650;SDS011;63169;46.042;14.592;2023-09-07T06:25:10;8.60;;;4.00;;
74650;SDS011;63169;46.042;14.592;2023-09-07T06:27:35;14.05;;;5.35;;
74650;SDS011;63169;46.042;14.592;2023-09-07T06:30:01;11.32;;;4.82;;
74650;SDS011;63169;46.042;14.592;2023-09-07T06:32:26;8.88;;;5.07;;
74650;SDS011;63169;46.042;14.592;2023-09-07T06:34:51;8.65;;;4.82;;
74650;SDS011;63169;46.042;14.592;2023-09-07T06:37:17;8.82;;;4.38;;
74650;SDS011;63169;46.042;14.592;2023-09-07T06:39:42;8.32;;;4.78;;
74650;SDS011;63169;46.042;14.592;2023-09-07T06:42:08;8.70;;;4.70;;
74650;SDS011;63169;46.042;14.592;2023-09-07T06:44:34;7.38;;;3.95;;
74650;SDS011;63169;46.042;14.592;2023-09-07T06:47:00;7.93;;;4.43;;
74650;SDS011;63169;46.042;14.592;2023-09-07T06:49:25;7.68;;;4.60;;
74650;SDS011;63169;46.042;14.592;2023-09-07T06:51:53;9.23;;;4.80;;
74650;SDS011;63169;46.042;14.592;2023-09-07T06:54:18;8.68;;;3.85;;
74650;SDS011;63169;46.042;14.592;2023-09-07T06:56:43;7.15;;;4.40;;
74650;SDS011;63169;46.042;14.592;2023-09-07T06:59:09;6.88;;;3.50;;
74650;SDS011;63169;46.042;14.592;2023-09-07T07:01:34;7.82;;;4.65;;
74650;SDS011;63169;46.042;14.592;2023-09-07T07:04:00;8.68;;;3.53;;
74650;SDS011;63169;46.042;14.592;2023-09-07T07:06:26;8.10;;;4.13;;
74650;SDS011;63169;46.042;14.592;2023-09-07T07:08:51;7.22;;;5.45;;
74650;SDS011;63169;46.042;14.592;2023-09-07T07:11:17;8.93;;;4.60;;
74650;SDS011;63169;46.042;14.592;2023-09-07T07:13:42;8.13;;;4.72;;
74650;SDS011;63169;46.042;14.592;2023-09-07T07:16:08;8.90;;;4.13;;
74650;SDS011;63169;46.042;14.592;2023-09-07T07:18:33;11.35;;;4.20;;
74650;SDS011;63169;46.042;14.592;2023-09-07T07:21:01;6.85;;;4.38;;
74650;SDS011;63169;46.042;14.592;2023-09-07T07:23:27;8.00;;;4.43;;
74650;SDS011;63169;46.042;14.592;2023-09-07T07:25:52;7.78;;;4.13;;
74650;SDS011;63169;46.042;14.592;2023-09-07T07:28:18;6.00;;;4.63;;
74650;SDS011;63169;46.042;14.592;2023-09-07T07:30:43;7.95;;;4.60;;
74650;SDS011;63169;46.042;14.592;2023-09-07T07:33:09;7.18;;;3.80;;
74650;SDS011;63169;46.042;14.592;2023-09-07T07:35:36;9.13;;;4.25;;
74650;SDS011;63169;46.042;14.592;2023-09-07T07:38:02;9.45;;;5.13;;
74650;SDS011;63169;46.042;14.592;2023-09-07T07:40:29;5.25;;;3.10;;
74650;SDS011;63169;46.042;14.592;2023-09-07T07:42:55;6.32;;;2.22;;
74650;SDS011;63169;46.042;14.592;2023-09-07T07:45:20;5.40;;;2.95;;
74650;SDS011;63169;46.042;14.592;2023-09-07T07:47:47;5.82;;;3.20;;
74650;SDS011;63169;46.042;14.592;2023-09-07T07:50:14;4.50;;;2.75;;
74650;SDS011;63169;46.042;14.592;2023-09-07T07:52:39;5.82;;;3.60;;
74650;SDS011;63169;46.042;14.592;2023-09-07T07:55:05;5.28;;;3.15;;
74650;SDS011;63169;46.042;14.592;2023-09-07T07:57:31;5.65;;;2.83;;
74650;SDS011;63169;46.042;14.592;2023-09-07T07:59:57;4.32;;;2.78;;
74650;SDS011;63169;46.042;14.592;2023-09-07T08:02:22;6.55;;;2.90;;
74650;SDS011;63169;46.042;14.592;2023-09-07T08:04:47;5.57;;;2.92;;
74650;SDS011;63169;46.042;14.592;2023-09-07T08:07:13;8.55;;;3.38;;
74650;SDS011;63169;46.042;14.592;2023-09-07T08:09:38;6.03;;;3.17;;
74650;SDS011;63169;46.042;14.592;2023-09-07T08:12:04;8.77;;;3.00;;
74650;SDS011;63169;46.042;14.592;2023-09-07T08:14:30;7.85;;;3.28;;
74650;SDS011;63169;46.042;14.592;2023-09-07T08:16:56;7.05;;;3.05;;
74650;SDS011;63169;46.042;14.592;2023-09-07T08:21:46;4.40;;;2.40;;
74650;SDS011;63169;46.042;14.592;2023-09-07T08:24:12;5.28;;;3.13;;
74650;SDS011;63169;46.042;14.592;2023-09-07T08:26:37;4.82;;;3.03;;
74650;SDS011;63169;46.042;14.592;2023-09-07T08:31:33;6.03;;;3.17;;
74650;SDS011;63169;46.042;14.592;2023-09-07T08:34:04;6.55;;;2.65;;
74650;SDS011;63169;46.042;14.592;2023-09-07T08:36:30;8.48;;;3.03;;
74650;SDS011;63169;46.042;14.592;2023-09-07T08:38:59;4.20;;;2.42;;
74650;SDS011;63169;46.042;14.592;2023-09-07T08:41:39;4.18;;;2.33;;
74650;SDS011;63169;46.042;14.592;2023-09-07T08:44:12;6.43;;;2.22;;
74650;SDS011;63169;46.042;14.592;2023-09-07T08:46:41;5.25;;;2.78;;
74650;SDS011;63169;46.042;14.592;2023-09-07T08:49:08;6.85;;;2.58;;
74650;SDS011;63169;46.042;14.592;2023-09-07T08:54:02;4.30;;;1.98;;
74650;SDS011;63169;46.042;14.592;2023-09-07T08:58:53;4.57;;;1.83;;
74650;SDS011;63169;46.042;14.592;2023-09-07T09:03:43;4.22;;;1.88;;
74650;SDS011;63169;46.042;14.592;2023-09-07T09:06:10;5.57;;;2.95;;
74650;SDS011;63169;46.042;14.592;2023-09-07T09:11:08;6.80;;;2.20;;
74650;SDS011;63169;46.042;14.592;2023-09-07T09:13:34;4.72;;;2.20;;
74650;SDS011;63169;46.042;14.592;2023-09-07T09:15:59;4.45;;;1.98;;
74650;SDS011;63169;46.042;14.592;2023-09-07T09:18:27;7.05;;;3.33;;
74650;SDS011;63169;46.042;14.592;2023-09-07T09:20:57;4.90;;;2.63;;
74650;SDS011;63169;46.042;14.592;2023-09-07T09:23:35;5.22;;;2.85;;
74650;SDS011;63169;46.042;14.592;2023-09-07T09:26:01;4.93;;;2.65;;
74650;SDS011;63169;46.042;14.592;2023-09-07T09:28:28;4.30;;;2.05;;
74650;SDS011;63169;46.042;14.592;2023-09-07T09:30:54;4.38;;;2.75;;
74650;SDS011;63169;46.042;14.592;2023-09-07T09:33:20;3.78;;;2.17;;
74650;SDS011;63169;46.042;14.592;2023-09-07T09:35:47;3.55;;;1.38;;
74650;SDS011;63169;46.042;14.592;2023-09-07T09:38:12;3.88;;;1.83;;
74650;SDS011;63169;46.042;14.592;2023-09-07T09:40:38;4.22;;;1.40;;
74650;SDS011;63169;46.042;14.592;2023-09-07T09:43:04;3.97;;;2.05;;
74650;SDS011;63169;46.042;14.592;2023-09-07T09:45:30;2.63;;;1.50;;
74650;SDS011;63169;46.042;14.592;2023-09-07T09:47:57;2.20;;;1.17;;
74650;SDS011;63169;46.042;14.592;2023-09-07T09:50:25;2.58;;;1.83;;
74650;SDS011;63169;46.042;14.592;2023-09-07T09:52:51;3.20;;;1.42;;
74650;SDS011;63169;46.042;14.592;2023-09-07T09:55:17;3.08;;;2.05;;
74650;SDS011;63169;46.042;14.592;2023-09-07T09:57:43;4.05;;;1.75;;
74650;SDS011;63169;46.042;14.592;2023-09-07T10:00:08;4.18;;;1.98;;
74650;SDS011;63169;46.042;14.592;2023-09-07T10:02:46;4.25;;;2.20;;
74650;SDS011;63169;46.042;14.592;2023-09-07T10:05:13;3.92;;;1.30;;
74650;SDS011;63169;46.042;14.592;2023-09-07T10:07:48;3.25;;;1.85;;
74650;SDS011;63169;46.042;14.592;2023-09-07T10:10:15;4.90;;;1.10;;
74650;SDS011;63169;46.042;14.592;2023-09-07T10:12:50;2.60;;;2.03;;
74650;SDS011;63169;46.042;14.592;2023-09-07T10:15:22;3.22;;;1.92;;
74650;SDS011;63169;46.042;14.592;2023-09-07T10:17:48;3.05;;;1.52;;
74650;SDS011;63169;46.042;14.592;2023-09-07T10:20:18;5.25;;;2.40;;
74650;SDS011;63169;46.042;14.592;2023-09-07T10:22:45;5.13;;;1.63;;
74650;SDS011;63169;46.042;14.592;2023-09-07T10:25:22;4.40;;;1.73;;
74650;SDS011;63169;46.042;14.592;2023-09-07T10:27:48;3.55;;;2.47;;
74650;SDS011;63169;46.042;14.592;2023-09-07T10:30:14;3.25;;;1.55;;
74650;SDS011;63169;46.042;14.592;2023-09-07T10:32:44;2.80;;;2.05;;
74650;SDS011;63169;46.042;14.592;2023-09-07T10:35:13;3.15;;;1.25;;
74650;SDS011;63169;46.042;14.592;2023-09-07T10:37:40;4.22;;;2.20;;
74650;SDS011;63169;46.042;14.592;2023-09-07T10:40:06;3.47;;;1.27;;
74650;SDS011;63169;46.042;14.592;2023-09-07T10:42:36;7.22;;;1.23;;
74650;SDS011;63169;46.042;14.592;2023-09-07T10:45:11;3.47;;;1.48;;
74650;SDS011;63169;46.042;14.592;2023-09-07T10:47:41;3.92;;;1.48;;
74650;SDS011;63169;46.042;14.592;2023-09-07T10:50:12;3.47;;;1.90;;
74650;SDS011;63169;46.042;14.592;2023-09-07T10:52:41;3.92;;;1.63;;
74650;SDS011;63169;46.042;14.592;2023-09-07T10:55:10;2.92;;;1.48;;
74650;SDS011;63169;46.042;14.592;2023-09-07T10:57:45;3.25;;;2.35;;
74650;SDS011;63169;46.042;14.592;2023-09-07T11:00:11;3.47;;;0.95;;
74650;SDS011;63169;46.042;14.592;2023-09-07T11:02:37;3.38;;;1.80;;
74650;SDS011;63169;46.042;14.592;2023-09-07T11:05:03;3.30;;;2.15;;
74650;SDS011;63169;46.042;14.592;2023-09-07T11:07:29;3.83;;;1.85;;
74650;SDS011;63169;46.042;14.592;2023-09-07T11:09:54;4.47;;;2.30;;
74650;SDS011;63169;46.042;14.592;2023-09-07T11:12:20;3.53;;;2.03;;
74650;SDS011;63169;46.042;14.592;2023-09-07T11:14:53;3.28;;;1.75;;
74650;SDS011;63169;46.042;14.592;2023-09-07T11:17:18;3.90;;;1.98;;
74650;SDS011;63169;46.042;14.592;2023-09-07T11:19:44;3.47;;;1.60;;
74650;SDS011;63169;46.042;14.592;2023-09-07T11:22:09;4.10;;;2.03;;
74650;SDS011;63169;46.042;14.592;2023-09-07T11:24:35;3.35;;;1.45;;
74650;SDS011;63169;46.042;14.592;2023-09-07T11:27:01;3.78;;;2.05;;
74650;SDS011;63169;46.042;14.592;2023-09-07T11:29:27;2.97;;;1.13;;
74650;SDS011;63169;46.042;14.592;2023-09-07T11:32:05;3.40;;;1.98;;
74650;SDS011;63169;46.042;14.592;2023-09-07T11:34:31;3.13;;;1.33;;
74650;SDS011;63169;46.042;14.592;2023-09-07T11:36:57;3.40;;;2.17;;
74650;SDS011;63169;46.042;14.592;2023-09-07T11:39:23;3.15;;;1.85;;
74650;SDS011;63169;46.042;14.592;2023-09-07T11:41:48;2.30;;;1.23;;
74650;SDS011;63169;46.042;14.592;2023-09-07T11:44:13;3.13;;;2.20;;
74650;SDS011;63169;46.042;14.592;2023-09-07T11:46:39;3.70;;;2.03;;
74650;SDS011;63169;46.042;14.592;2023-09-07T11:49:04;3.13;;;1.95;;
74650;SDS011;63169;46.042;14.592;2023-09-07T11:51:30;4.93;;;1.30;;
74650;SDS011;63169;46.042;14.592;2023-09-07T11:53:56;3.20;;;1.50;;
74650;SDS011;63169;46.042;14.592;2023-09-07T11:56:22;3.47;;;1.52;;
74650;SDS011;63169;46.042;14.592;2023-09-07T11:58:47;3.90;;;2.67;;
74650;SDS011;63169;46.042;14.592;2023-09-07T12:01:13;2.78;;;2.00;;
74650;SDS011;63169;46.042;14.592;2023-09-07T12:03:42;3.88;;;1.67;;
74650;SDS011;63169;46.042;14.592;2023-09-07T12:06:08;3.45;;;1.77;;
74650;SDS011;63169;46.042;14.592;2023-09-07T12:08:33;3.28;;;1.75;;
74650;SDS011;63169;46.042;14.592;2023-09-07T12:10:58;3.28;;;2.00;;
74650;SDS011;63169;46.042;14.592;2023-09-07T12:13:24;5.05;;;1.85;;
74650;SDS011;63169;46.042;14.592;2023-09-07T12:15:50;4.28;;;2.00;;
74650;SDS011;63169;46.042;14.592;2023-09-07T12:18:16;4.82;;;2.42;;
74650;SDS011;63169;46.042;14.592;2023-09-07T12:20:41;4.00;;;1.92;;
74650;SDS011;63169;46.042;14.592;2023-09-07T12:23:09;4.25;;;1.92;;
74650;SDS011;63169;46.042;14.592;2023-09-07T12:25:35;3.85;;;2.42;;
74650;SDS011;63169;46.042;14.592;2023-09-07T12:28:01;3.95;;;1.98;;
74650;SDS011;63169;46.042;14.592;2023-09-07T12:30:27;3.78;;;2.20;;
74650;SDS011;63169;46.042;14.592;2023-09-07T12:32:53;3.13;;;2.03;;
74650;SDS011;63169;46.042;14.592;2023-09-07T12:35:18;5.20;;;2.28;;
74650;SDS011;63169;46.042;14.592;2023-09-07T12:37:45;3.83;;;2.72;;
74650;SDS011;63169;46.042;14.592;2023-09-07T12:40:11;3.95;;;2.42;;
74650;SDS011;63169;46.042;14.592;2023-09-07T12:42:41;3.38;;;2.17;;
74650;SDS011;63169;46.042;14.592;2023-09-07T12:45:08;3.47;;;1.92;;
74650;SDS011;63169;46.042;14.592;2023-09-07T12:47:34;3.10;;;1.67;;
74650;SDS011;63169;46.042;14.592;2023-09-07T12:49:59;5.82;;;3.60;;
74650;SDS011;63169;46.042;14.592;2023-09-07T12:52:25;3.53;;;2.08;;
74650;SDS011;63169;46.042;14.592;2023-09-07T12:54:50;3.03;;;2.20;;
74650;SDS011;63169;46.042;14.592;2023-09-07T12:57:15;4.13;;;1.50;;
74650;SDS011;63169;46.042;14.592;2023-09-07T12:59:42;5.15;;;2.67;;
74650;SDS011;63169;46.042;14.592;2023-09-07T13:02:07;3.85;;;2.13;;
74650;SDS011;63169;46.042;14.592;2023-09-07T13:04:33;3.97;;;2.60;;
74650;SDS011;63169;46.042;14.592;2023-09-07T13:06:58;4.25;;;1.65;;
74650;SDS011;63169;46.042;14.592;2023-09-07T13:09:26;2.97;;;1.52;;
74650;SDS011;63169;46.042;14.592;2023-09-07T13:11:51;4.00;;;2.47;;
74650;SDS011;63169;46.042;14.592;2023-09-07T13:14:16;4.50;;;2.22;;
74650;SDS011;63169;46.042;14.592;2023-09-07T13:16:42;3.00;;;1.60;;
74650;SDS011;63169;46.042;14.592;2023-09-07T13:19:07;3.08;;;2.08;;
74650;SDS011;63169;46.042;14.592;2023-09-07T13:21:32;3.35;;;2.60;;
74650;SDS011;63169;46.042;14.592;2023-09-07T13:23:58;4.38;;;2.20;;
74650;SDS011;63169;46.042;14.592;2023-09-07T13:26:23;3.42;;;1.77;;
74650;SDS011;63169;46.042;14.592;2023-09-07T13:28:49;3.80;;;2.63;;
74650;SDS011;63169;46.042;14.592;2023-09-07T13:31:14;3.53;;;1.70;;
74650;SDS011;63169;46.042;14.592;2023-09-07T13:33:39;3.75;;;1.70;;
74650;SDS011;63169;46.042;14.592;2023-09-07T13:36:05;3.58;;;1.90;;
74650;SDS011;63169;46.042;14.592;2023-09-07T13:38:30;3.42;;;2.17;;
74650;SDS011;63169;46.042;14.592;2023-09-07T13:40:55;3.58;;;1.95;;
74650;SDS011;63169;46.042;14.592;2023-09-07T13:43:21;3.88;;;2.17;;
74650;SDS011;63169;46.042;14.592;2023-09-07T13:45:46;4.45;;;2.65;;
74650;SDS011;63169;46.042;14.592;2023-09-07T13:48:12;4.18;;;1.98;;
74650;SDS011;63169;46.042;14.592;2023-09-07T13:50:38;4.43;;;2.38;;
74650;SDS011;63169;46.042;14.592;2023-09-07T13:53:04;3.97;;;2.55;;
74650;SDS011;63169;46.042;14.592;2023-09-07T13:55:29;3.35;;;2.47;;
74650;SDS011;63169;46.042;14.592;2023-09-07T13:57:54;3.35;;;2.28;;
74650;SDS011;63169;46.042;14.592;2023-09-07T14:00:20;4.85;;;2.45;;
74650;SDS011;63169;46.042;14.592;2023-09-07T14:02:45;3.10;;;1.92;;
74650;SDS011;63169;46.042;14.592;2023-09-07T14:05:11;2.83;;;1.52;;
74650;SDS011;63169;46.042;14.592;2023-09-07T14:07:36;3.72;;;1.75;;
74650;SDS011;63169;46.042;14.592;2023-09-07T14:10:01;4.32;;;2.38;;
74650;SDS011;63169;46.042;14.592;2023-09-07T14:12:27;4.30;;;1.98;;
74650;SDS011;63169;46.042;14.592;2023-09-07T14:14:52;3.53;;;1.73;;
74650;SDS011;63169;46.042;14.592;2023-09-07T14:17:18;4.07;;;2.13;;
74650;SDS011;63169;46.042;14.592;2023-09-07T14:19:43;8.02;;;3.22;;
74650;SDS011;63169;46.042;14.592;2023-09-07T14:22:10;4.40;;;2.30;;
74650;SDS011;63169;46.042;14.592;2023-09-07T14:24:36;3.42;;;2.45;;
74650;SDS011;63169;46.042;14.592;2023-09-07T14:27:02;3.05;;;1.67;;
74650;SDS011;63169;46.042;14.592;2023-09-07T14:29:27;3.20;;;1.17;;
74650;SDS011;63169;46.042;14.592;2023-09-07T14:31:54;3.25;;;2.15;;
74650;SDS011;63169;46.042;14.592;2023-09-07T14:34:19;4.20;;;1.88;;
74650;SDS011;63169;46.042;14.592;2023-09-07T14:36:44;3.50;;;1.70;;
74650;SDS011;63169;46.042;14.592;2023-09-07T14:39:10;4.05;;;1.67;;
74650;SDS011;63169;46.042;14.592;2023-09-07T14:41:35;4.43;;;2.13;;
74650;SDS011;63169;46.042;14.592;2023-09-07T14:44:01;2.88;;;1.52;;